createdAt,value
2018-11-13T00:02:15.074Z,10.37
2018-11-13T00:04:44.766Z,10.35
2018-11-13T00:07:14.532Z,10.31
2018-11-13T00:09:44.499Z,10.31
2018-11-13T00:12:14.381Z,10.36
2018-11-13T00:14:44.173Z,10.33
2018-11-13T00:17:13.890Z,10.35
2018-11-13T00:19:43.553Z,10.38
2018-11-13T00:22:13.302Z,10.40
2018-11-13T00:24:42.977Z,10.40
2018-11-13T00:27:12.894Z,10.40
2018-11-13T00:29:42.615Z,10.37
2018-11-13T00:32:12.343Z,10.36
2018-11-13T00:34:41.982Z,10.34
2018-11-13T00:37:11.876Z,10.34
2018-11-13T00:39:41.597Z,10.32
2018-11-13T00:42:11.335Z,10.44
2018-11-13T00:44:41.097Z,10.52
2018-11-13T00:47:10.802Z,10.53
2018-11-13T00:49:40.577Z,10.58
2018-11-13T00:52:10.253Z,10.60
2018-11-13T00:54:40.044Z,10.66
2018-11-13T00:57:10.419Z,10.61
2018-11-13T00:59:40.081Z,10.60
2018-11-13T01:02:10.185Z,10.63
2018-11-13T01:04:40.184Z,10.84
2018-11-13T01:07:11.385Z,10.92
2018-11-13T01:09:41.372Z,10.93
2018-11-13T01:12:11.129Z,11.12
2018-11-13T01:14:40.793Z,11.12
2018-11-13T01:17:10.778Z,11.24
2018-11-13T01:19:40.972Z,11.29
2018-11-13T01:22:11.288Z,11.31
2018-11-13T01:24:41.037Z,11.47
2018-11-13T01:27:10.808Z,11.54
2018-11-13T01:29:40.717Z,11.50
2018-11-13T01:32:10.461Z,11.48
2018-11-13T01:34:40.265Z,11.43
2018-11-13T01:37:09.946Z,11.32
2018-11-13T01:39:40.084Z,11.35
2018-11-13T01:42:09.809Z,11.21
2018-11-13T01:44:39.542Z,11.05
2018-11-13T01:47:09.157Z,10.90
2018-11-13T01:49:39.818Z,10.85
2018-11-13T01:52:09.129Z,10.91
2018-11-13T01:54:38.795Z,10.98
2018-11-13T01:57:08.695Z,11.25
2018-11-13T01:59:38.337Z,11.21
2018-11-13T02:02:08.206Z,11.18
2018-11-13T02:04:37.863Z,11.15
2018-11-13T02:07:07.621Z,11.15
2018-11-13T02:09:38.150Z,11.32
2018-11-13T02:12:07.979Z,11.29
2018-11-13T02:14:37.681Z,11.09
2018-11-13T02:17:08.053Z,11.01
2018-11-13T02:19:37.699Z,10.95
2018-11-13T02:22:07.407Z,10.95
2018-11-13T02:24:37.132Z,10.80
2018-11-13T02:27:07.523Z,10.80
2018-11-13T02:29:37.252Z,10.94
2018-11-13T02:32:07.089Z,11.04
2018-11-13T02:34:36.843Z,11.20
2018-11-13T02:37:06.862Z,11.13
2018-11-13T02:39:36.550Z,11.05
2018-11-13T02:42:06.682Z,10.95
2018-11-13T02:44:36.364Z,10.97
2018-11-13T02:47:06.257Z,11.03
2018-11-13T02:49:36.006Z,11.01
2018-11-13T02:52:05.897Z,10.81
2018-11-13T02:54:35.638Z,10.64
2018-11-13T02:57:05.354Z,10.58
2018-11-13T02:59:35.055Z,10.53
2018-11-13T03:02:04.857Z,10.54
2018-11-13T03:04:34.523Z,10.65
2018-11-13T03:07:04.352Z,10.72
2018-11-13T03:09:34.081Z,10.94
2018-11-13T03:12:03.796Z,10.88
2018-11-13T03:14:33.459Z,10.82
2018-11-13T03:17:03.108Z,10.90
2018-11-13T03:19:32.781Z,10.97
2018-11-13T03:22:02.522Z,11.01
2018-11-13T03:24:32.768Z,11.00
2018-11-13T03:27:02.568Z,11.11
2018-11-13T03:29:32.253Z,11.21
2018-11-13T03:32:01.932Z,11.33
2018-11-13T03:34:31.609Z,11.39
2018-11-13T03:37:01.257Z,11.49
2018-11-13T03:39:31.060Z,11.57
2018-11-13T03:42:00.734Z,11.43
2018-11-13T03:44:30.485Z,11.52
2018-11-13T03:47:00.202Z,11.50
2018-11-13T03:49:29.889Z,11.60
2018-11-13T03:51:59.594Z,11.50
2018-11-13T03:54:29.360Z,11.40
2018-11-13T03:56:59.058Z,11.53
2018-11-13T03:59:28.708Z,11.38
2018-11-13T04:01:58.367Z,11.29
2018-11-13T04:04:28.242Z,11.39
2018-11-13T04:06:57.899Z,11.36
2018-11-13T04:09:27.598Z,11.42
2018-11-13T04:11:57.332Z,11.46
2018-11-13T04:14:27.001Z,11.44
2018-11-13T04:16:56.673Z,11.59
2018-11-13T04:19:26.431Z,11.47
2018-11-13T04:22:00.858Z,11.36
2018-11-13T04:24:30.554Z,11.41
2018-11-13T04:27:00.821Z,11.36
2018-11-13T04:29:30.754Z,11.42
2018-11-13T04:32:00.616Z,11.38
2018-11-13T04:34:30.274Z,11.50
2018-11-13T04:37:00.042Z,11.49
2018-11-13T04:39:29.699Z,11.46
2018-11-13T04:41:59.405Z,11.39
2018-11-13T04:44:29.073Z,11.34
2018-11-13T04:46:58.888Z,11.39
2018-11-13T04:49:28.630Z,11.41
2018-11-13T04:51:58.249Z,11.42
2018-11-13T04:54:28.037Z,11.66
2018-11-13T04:57:04.478Z,11.59
2018-11-13T04:59:34.138Z,11.69
2018-11-13T05:02:03.818Z,11.66
2018-11-13T05:04:33.613Z,11.65
2018-11-13T05:07:03.564Z,11.49
2018-11-13T05:09:33.271Z,11.61
2018-11-13T05:12:03.313Z,11.59
2018-11-13T05:14:33.665Z,11.46
2018-11-13T05:17:03.635Z,11.57
2018-11-13T05:19:33.374Z,11.44
2018-11-13T05:22:03.028Z,11.45
2018-11-13T05:24:32.805Z,11.51
2018-11-13T05:27:02.486Z,11.47
2018-11-13T05:29:32.160Z,11.52
2018-11-13T05:32:01.882Z,11.66
2018-11-13T05:34:31.557Z,11.60
2018-11-13T05:37:01.339Z,11.47
2018-11-13T05:39:31.194Z,11.31
2018-11-13T05:42:00.891Z,11.31
2018-11-13T05:44:30.614Z,11.26
2018-11-13T05:47:00.535Z,11.46
2018-11-13T05:49:30.184Z,11.60
2018-11-13T05:52:00.235Z,11.62
2018-11-13T05:54:30.701Z,11.62
2018-11-13T05:57:00.371Z,11.59
2018-11-13T05:59:30.233Z,11.59
2018-11-13T06:02:00.066Z,11.59
2018-11-13T06:04:30.724Z,11.51
2018-11-13T06:07:00.481Z,11.73
2018-11-13T06:09:30.113Z,11.74
2018-11-13T06:11:59.785Z,11.83
2018-11-13T06:14:29.726Z,11.81
2018-11-13T06:16:59.487Z,11.96
2018-11-13T06:19:29.292Z,11.70
2018-11-13T06:21:59.026Z,11.82
2018-11-13T06:24:28.725Z,11.65
2018-11-13T06:26:58.415Z,11.47
2018-11-13T06:29:28.131Z,11.45
2018-11-13T06:31:57.819Z,11.45
2018-11-13T06:34:28.063Z,11.50
2018-11-13T06:37:03.843Z,11.47
2018-11-13T06:39:33.512Z,11.51
2018-11-13T06:42:03.425Z,11.45
2018-11-13T06:44:33.127Z,11.55
2018-11-13T06:47:02.909Z,11.46
2018-11-13T06:49:32.684Z,11.44
2018-11-13T06:52:02.489Z,11.35
2018-11-13T06:54:54.914Z,11.17
2018-11-13T06:57:24.748Z,11.00
2018-11-13T06:59:54.578Z,10.85
2018-11-13T07:02:24.273Z,10.70
2018-11-13T07:04:53.947Z,10.55
2018-11-13T07:07:23.649Z,10.45
2018-11-13T07:09:53.289Z,10.33
2018-11-13T07:12:23.030Z,10.36
2018-11-13T07:14:53.617Z,10.40
2018-11-13T07:17:23.471Z,10.39
2018-11-13T07:19:53.146Z,10.27
2018-11-13T07:22:22.829Z,10.25
2018-11-13T07:24:52.581Z,10.30
2018-11-13T07:27:22.304Z,10.40
2018-11-13T07:29:51.921Z,10.56
2018-11-13T07:32:21.642Z,10.64
2018-11-13T07:34:52.005Z,10.92
2018-11-13T07:37:21.678Z,11.17
2018-11-13T07:39:51.456Z,11.46
2018-11-13T07:42:21.326Z,11.67
2018-11-13T07:44:51.121Z,11.57
2018-11-13T07:47:20.782Z,11.86
2018-11-13T07:49:50.618Z,11.86
2018-11-13T07:52:20.408Z,11.89
2018-11-13T07:54:50.112Z,11.89
2018-11-13T07:57:19.939Z,12.05
2018-11-13T07:59:49.595Z,12.15
2018-11-13T08:02:19.233Z,12.02
2018-11-13T08:04:48.999Z,12.08
2018-11-13T08:07:18.762Z,12.32
2018-11-13T08:09:48.378Z,12.59
2018-11-13T08:12:18.060Z,12.74
2018-11-13T08:14:47.938Z,12.76
2018-11-13T08:17:17.805Z,12.69
2018-11-13T08:19:47.501Z,12.94
2018-11-13T08:22:17.351Z,12.84
2018-11-13T08:24:46.908Z,12.80
2018-11-13T08:27:16.593Z,12.83
2018-11-13T08:29:46.354Z,12.97
2018-11-13T08:32:16.124Z,12.98
2018-11-13T08:34:45.901Z,12.95
2018-11-13T08:37:15.600Z,13.03
2018-11-13T08:39:45.317Z,13.22
2018-11-13T08:42:15.001Z,13.63
2018-11-13T08:44:44.719Z,13.64
2018-11-13T08:47:15.344Z,13.48
2018-11-13T08:49:45.044Z,13.32
2018-11-13T08:52:14.795Z,13.06
2018-11-13T08:54:44.533Z,13.01
2018-11-13T08:57:14.209Z,12.84
2018-11-13T08:59:44.041Z,12.86
2018-11-13T09:02:13.663Z,12.68
2018-11-13T09:04:43.289Z,12.96
2018-11-13T09:07:14.806Z,13.36
2018-11-13T09:09:44.497Z,13.77
2018-11-13T09:12:14.265Z,14.21
2018-11-13T09:14:50.593Z,14.19
2018-11-13T09:17:23.322Z,14.18
2018-11-13T09:19:52.998Z,14.46
2018-11-13T09:22:33.482Z,14.14
2018-11-13T09:25:03.201Z,14.22
2018-11-13T09:27:32.905Z,14.22
2018-11-13T09:30:02.697Z,14.21
2018-11-13T09:32:33.106Z,14.40
2018-11-13T09:35:04.334Z,14.32
2018-11-13T09:37:34.145Z,14.44
2018-11-13T09:40:03.749Z,14.34
2018-11-13T09:42:33.400Z,14.14
2018-11-13T09:45:03.218Z,13.86
2018-11-13T09:47:33.057Z,13.78
2018-11-13T09:50:02.814Z,13.40
2018-11-13T09:52:32.841Z,13.65
2018-11-13T09:55:02.813Z,13.67
2018-11-13T09:57:32.894Z,13.52
2018-11-13T10:00:02.679Z,13.61
2018-11-13T10:02:33.362Z,13.78
2018-11-13T10:05:03.433Z,14.79
2018-11-13T10:07:38.375Z,15.50
2018-11-13T10:10:10.305Z,15.52
2018-11-13T10:12:40.167Z,15.48
2018-11-13T10:15:15.767Z,15.23
2018-11-13T10:17:45.520Z,15.19
2018-11-13T10:20:16.166Z,15.41
2018-11-13T10:22:47.209Z,15.67
2018-11-13T10:25:17.037Z,15.40
2018-11-13T10:27:47.040Z,15.12
2018-11-13T10:30:18.861Z,14.63
2018-11-13T10:32:48.974Z,14.57
2018-11-13T10:35:20.119Z,14.34
2018-11-13T10:37:49.744Z,14.83
2018-11-13T10:40:20.789Z,14.88
2018-11-13T10:42:50.917Z,14.75
2018-11-13T10:45:22.546Z,15.01
2018-11-13T10:47:52.331Z,15.32
2018-11-13T10:50:23.762Z,15.53
2018-11-13T10:52:53.571Z,15.34
2018-11-13T10:55:23.303Z,15.11
2018-11-13T10:57:53.073Z,15.12
2018-11-13T11:00:32.661Z,15.46
2018-11-13T11:03:09.654Z,15.13
2018-11-13T11:05:40.030Z,14.82
2018-11-13T11:08:09.843Z,14.40
2018-11-13T11:10:39.589Z,14.68
2018-11-13T11:13:09.421Z,15.14
2018-11-13T11:15:39.122Z,15.40
2018-11-13T11:18:09.565Z,15.52
2018-11-13T11:20:39.269Z,15.55
2018-11-13T11:23:09.127Z,15.42
2018-11-13T11:25:38.771Z,15.11
2018-11-13T11:28:08.541Z,14.58
2018-11-13T11:30:38.344Z,14.16
2018-11-13T11:33:08.061Z,14.39
2018-11-13T11:35:37.746Z,14.12
2018-11-13T11:38:07.725Z,14.50
2018-11-13T11:40:37.679Z,14.52
2018-11-13T11:43:07.683Z,14.81
2018-11-13T11:45:37.442Z,15.38
2018-11-13T11:48:07.398Z,15.69
2018-11-13T11:50:37.145Z,16.21
2018-11-13T11:53:06.876Z,15.55
2018-11-13T11:55:36.646Z,15.14
2018-11-13T11:58:06.621Z,15.19
2018-11-13T12:00:36.480Z,15.24
2018-11-13T12:03:06.273Z,15.53
2018-11-13T12:05:35.952Z,15.88
2018-11-13T12:08:05.926Z,16.32
2018-11-13T12:10:35.621Z,16.50
2018-11-13T12:13:05.683Z,16.45
2018-11-13T12:15:35.414Z,16.14
2018-11-13T12:18:06.114Z,16.25
2018-11-13T12:20:35.941Z,16.31
2018-11-13T12:23:06.165Z,16.60
2018-11-13T12:25:35.896Z,16.72
2018-11-13T12:28:05.926Z,16.48
2018-11-13T12:30:35.589Z,16.06
2018-11-13T12:33:05.670Z,15.79
2018-11-13T12:35:35.448Z,15.51
2018-11-13T12:38:05.181Z,15.34
2018-11-13T12:40:34.951Z,15.14
2018-11-13T12:43:04.698Z,15.03
2018-11-13T12:45:37.528Z,15.08
2018-11-13T12:48:07.719Z,14.84
2018-11-13T12:50:42.513Z,14.60
2018-11-13T12:53:12.328Z,14.66
2018-11-13T12:55:42.225Z,14.48
2018-11-13T12:58:11.981Z,14.60
2018-11-13T13:00:41.677Z,14.40
2018-11-13T13:03:11.405Z,14.40
2018-11-13T13:05:41.705Z,14.70
2018-11-13T13:08:11.657Z,14.55
2018-11-13T13:10:41.373Z,14.54
2018-11-13T13:13:11.209Z,14.74
2018-11-13T13:15:41.043Z,14.83
2018-11-13T13:18:10.718Z,14.90
2018-11-13T13:20:40.549Z,14.59
2018-11-13T13:23:10.366Z,14.68
2018-11-13T13:25:40.958Z,14.62
2018-11-13T13:28:10.603Z,14.50
2018-11-13T13:30:40.342Z,14.52
2018-11-13T13:33:10.155Z,14.61
2018-11-13T13:35:49.187Z,14.75
2018-11-13T13:38:18.993Z,14.61
2018-11-13T13:40:50.096Z,14.13
2018-11-13T13:43:20.667Z,14.43
2018-11-13T13:45:51.267Z,14.24
2018-11-13T13:48:21.440Z,14.31
2018-11-13T13:50:51.175Z,14.30
2018-11-13T13:53:21.787Z,14.12
2018-11-13T13:55:51.799Z,14.09
2018-11-13T13:58:22.443Z,14.26
2018-11-13T14:00:52.962Z,14.54
2018-11-13T14:03:22.787Z,14.71
2018-11-13T14:05:52.592Z,14.92
2018-11-13T14:08:22.951Z,14.89
2018-11-13T14:10:52.685Z,14.51
2018-11-13T14:13:23.182Z,14.08
2018-11-13T14:15:53.205Z,14.14
2018-11-13T14:18:23.016Z,14.13
2018-11-13T14:20:52.787Z,13.65
2018-11-13T14:23:22.422Z,13.58
2018-11-13T14:25:52.162Z,13.66
2018-11-13T14:28:22.129Z,13.88
2018-11-13T14:30:51.790Z,13.70
2018-11-13T14:33:21.448Z,13.66
2018-11-13T14:35:51.850Z,13.65
2018-11-13T14:38:21.696Z,13.58
2018-11-13T14:40:51.451Z,13.53
2018-11-13T14:43:21.180Z,13.31
2018-11-13T14:45:51.120Z,13.11
2018-11-13T14:48:20.913Z,13.01
2018-11-13T14:50:51.201Z,12.96
2018-11-13T14:53:21.003Z,13.21
2018-11-13T14:55:50.630Z,13.26
2018-11-13T14:58:20.379Z,13.39
2018-11-13T15:00:50.042Z,13.56
2018-11-13T15:03:19.704Z,13.64
2018-11-13T15:05:49.427Z,13.36
2018-11-13T15:08:19.265Z,13.42
2018-11-13T15:10:51.359Z,13.14
2018-11-13T15:13:22.245Z,13.16
2018-11-13T15:15:52.109Z,13.06
2018-11-13T15:18:22.544Z,12.99
2018-11-13T15:20:52.943Z,12.62
2018-11-13T15:23:22.734Z,12.56
2018-11-13T15:25:52.472Z,12.62
2018-11-13T15:28:22.140Z,12.52
2018-11-13T15:30:52.369Z,12.46
2018-11-13T15:33:25.515Z,12.45
2018-11-13T15:35:55.169Z,12.31
2018-11-13T15:38:24.907Z,12.12
2018-11-13T15:40:54.661Z,11.99
2018-11-13T15:43:24.475Z,12.05
2018-11-13T15:45:55.542Z,11.71
2018-11-13T15:48:25.387Z,11.55
2018-11-13T15:50:55.609Z,11.34
2018-11-13T15:53:25.419Z,11.36
2018-11-13T15:55:55.124Z,11.20
2018-11-13T15:58:24.980Z,11.10
2018-11-13T16:00:54.833Z,11.27
2018-11-13T16:03:28.259Z,11.27
2018-11-13T16:05:58.175Z,10.99
2018-11-13T16:08:27.963Z,10.95
2018-11-13T16:10:57.763Z,11.03
2018-11-13T16:13:27.475Z,10.75
2018-11-13T16:15:57.351Z,10.84
2018-11-13T16:18:33.721Z,10.67
2018-11-13T16:21:03.416Z,10.50
2018-11-13T16:23:33.041Z,10.36
2018-11-13T16:26:02.795Z,10.18
2018-11-13T16:28:32.626Z,10.15
2018-11-13T16:31:02.453Z,10.34
2018-11-13T16:33:32.177Z,10.41
2018-11-13T16:36:02.217Z,10.39
2018-11-13T16:38:32.099Z,10.26
2018-11-13T16:41:01.853Z,10.12
2018-11-13T16:43:31.580Z,10.11
2018-11-13T16:46:01.327Z,10.33
2018-11-13T16:48:31.050Z,10.36
2018-11-13T16:51:00.770Z,10.36
2018-11-13T16:53:30.565Z,10.24
2018-11-13T16:56:02.926Z,10.16
2018-11-13T16:58:32.619Z,10.08
2018-11-13T17:01:03.208Z,10.12
2018-11-13T17:03:33.035Z,10.13
2018-11-13T17:06:02.812Z,9.98
2018-11-13T17:08:32.624Z,10.08
2018-11-13T17:11:02.363Z,10.04
2018-11-13T17:13:32.102Z,9.86
2018-11-13T17:16:01.964Z,9.84
2018-11-13T17:18:31.817Z,9.66
2018-11-13T17:21:01.576Z,9.61
2018-11-13T17:23:31.950Z,9.54
2018-11-13T17:26:01.664Z,9.82
2018-11-13T17:28:31.408Z,9.76
2018-11-13T17:31:01.239Z,9.79
2018-11-13T17:33:30.905Z,9.66
2018-11-13T17:36:00.618Z,9.65
2018-11-13T17:38:30.341Z,9.83
2018-11-13T17:41:00.053Z,9.80
2018-11-13T17:43:29.841Z,9.89
2018-11-13T17:45:59.619Z,9.83
2018-11-13T17:48:29.324Z,9.76
2018-11-13T17:50:59.003Z,9.66
2018-11-13T17:53:29.267Z,9.74
2018-11-13T17:55:59.079Z,9.57
2018-11-13T17:58:29.128Z,9.54
2018-11-13T18:00:58.950Z,9.73
2018-11-13T18:03:30.824Z,9.75
2018-11-13T18:06:00.533Z,9.84
2018-11-13T18:08:30.350Z,9.82
2018-11-13T18:11:00.254Z,9.65
2018-11-13T18:13:30.015Z,9.49
2018-11-13T18:15:59.934Z,9.37
2018-11-13T18:18:29.718Z,9.21
2018-11-13T18:21:01.021Z,9.38
2018-11-13T18:23:30.796Z,9.53
2018-11-13T18:26:00.620Z,9.66
2018-11-13T18:28:35.231Z,9.76
2018-11-13T18:31:05.466Z,9.96
2018-11-13T18:33:35.321Z,9.86
2018-11-13T18:36:05.106Z,9.78
2018-11-13T18:38:35.503Z,9.71
2018-11-13T18:41:05.724Z,9.73
2018-11-13T18:43:35.879Z,9.65
2018-11-13T18:46:06.172Z,9.70
2018-11-13T18:48:35.990Z,9.57
2018-11-13T18:51:06.488Z,9.53
2018-11-13T18:53:36.642Z,9.42
2018-11-13T18:56:06.441Z,9.38
2018-11-13T18:58:36.217Z,9.38
2018-11-13T19:01:07.062Z,9.28
2018-11-13T19:03:37.220Z,9.39
2018-11-13T19:06:07.460Z,9.49
2018-11-13T19:08:37.602Z,9.50
2018-11-13T19:11:07.467Z,9.48
2018-11-13T19:13:37.573Z,9.48
2018-11-13T19:16:10.911Z,9.42
2018-11-13T19:18:40.645Z,9.35
2018-11-13T19:21:10.371Z,9.24
2018-11-13T19:23:40.872Z,9.23
2018-11-13T19:26:10.772Z,9.23
2018-11-13T19:28:40.718Z,9.35
2018-11-13T19:31:10.514Z,9.22
2018-11-13T19:33:40.296Z,9.14
2018-11-13T19:36:10.413Z,9.14
2018-11-13T19:38:40.821Z,9.10
2018-11-13T19:41:10.515Z,9.08
2018-11-13T19:43:40.322Z,9.06
2018-11-13T19:46:10.124Z,8.85
2018-11-13T19:48:39.931Z,8.83
2018-11-13T19:51:09.863Z,8.94
2018-11-13T19:53:39.626Z,8.95
2018-11-13T19:56:09.469Z,8.93
2018-11-13T19:58:39.374Z,8.76
2018-11-13T20:01:09.290Z,8.59
2018-11-13T20:03:45.558Z,8.61
2018-11-13T20:06:15.443Z,8.71
2018-11-13T20:08:45.137Z,8.73
2018-11-13T20:11:14.830Z,8.76
2018-11-13T20:13:44.659Z,8.77
2018-11-13T20:16:14.550Z,8.65
2018-11-13T20:18:44.365Z,8.62
2018-11-13T20:21:14.203Z,8.62
2018-11-13T20:23:44.123Z,8.56
2018-11-13T20:26:13.997Z,8.64
2018-11-13T20:28:44.417Z,8.75
2018-11-13T20:31:14.207Z,8.79
2018-11-13T20:33:44.901Z,8.66
2018-11-13T20:36:16.923Z,8.60
2018-11-13T20:38:47.463Z,8.52
2018-11-13T20:41:17.453Z,8.59
2018-11-13T20:43:47.981Z,8.66
2018-11-13T20:46:18.389Z,8.65
2018-11-13T20:48:48.566Z,8.51
2018-11-13T20:51:18.654Z,8.58
2018-11-13T20:53:48.538Z,8.71
2018-11-13T20:56:18.390Z,8.79
2018-11-13T20:58:48.299Z,8.82
2018-11-13T21:01:18.407Z,8.76
2018-11-13T21:03:48.112Z,8.67
2018-11-13T21:06:17.964Z,8.66
2018-11-13T21:08:48.111Z,8.57
2018-11-13T21:11:17.451Z,8.41
2018-11-13T21:13:47.387Z,8.32
2018-11-13T21:16:17.895Z,8.42
2018-11-13T21:18:47.714Z,8.53
2018-11-13T21:21:17.643Z,8.59
2018-11-13T21:23:47.636Z,8.58
2018-11-13T21:26:17.309Z,8.40
2018-11-13T21:28:47.115Z,8.21
2018-11-13T21:31:17.142Z,8.05
2018-11-13T21:33:47.669Z,7.84
2018-11-13T21:36:17.516Z,7.65
2018-11-13T21:38:47.571Z,7.60
2018-11-13T21:41:17.341Z,7.60
2018-11-13T21:43:47.059Z,7.79
2018-11-13T21:46:16.811Z,7.68
2018-11-13T21:48:49.584Z,7.47
2018-11-13T21:51:19.979Z,7.29
2018-11-13T21:53:49.675Z,7.12
2018-11-13T21:56:19.415Z,6.96
2018-11-13T21:58:49.164Z,6.86
2018-11-13T22:01:19.028Z,6.80
2018-11-13T22:03:48.744Z,6.60
2018-11-13T22:06:18.582Z,6.49
2018-11-13T22:08:48.444Z,6.46
2018-11-13T22:11:18.245Z,6.47
2018-11-13T22:13:48.066Z,6.35
2018-11-13T22:16:17.817Z,6.25
2018-11-13T22:18:47.642Z,6.08
2018-11-13T22:21:17.427Z,6.04
2018-11-13T22:23:47.232Z,6.03
2018-11-13T22:26:17.046Z,5.92
2018-11-13T22:28:46.989Z,5.75
2018-11-13T22:31:16.544Z,5.81
2018-11-13T22:33:49.303Z,5.92
2018-11-13T22:36:18.999Z,5.84
2018-11-13T22:38:48.706Z,5.90
2018-11-13T22:41:18.486Z,6.04
2018-11-13T22:43:48.258Z,6.00
2018-11-13T22:46:17.952Z,6.03
2018-11-13T22:48:47.619Z,6.03
2018-11-13T22:51:17.395Z,5.95
2018-11-13T22:53:47.461Z,5.74
2018-11-13T22:56:17.098Z,5.67
2018-11-13T22:58:46.812Z,5.57
2018-11-13T23:01:16.768Z,5.47
2018-11-13T23:03:46.374Z,5.57
2018-11-13T23:06:16.051Z,5.63
2018-11-13T23:08:45.768Z,5.67
2018-11-13T23:11:16.158Z,5.72
2018-11-13T23:13:45.844Z,5.71
2018-11-13T23:16:15.614Z,5.78
2018-11-13T23:18:45.473Z,5.78
2018-11-13T23:21:15.286Z,5.74
2018-11-13T23:23:44.928Z,5.77
2018-11-13T23:26:14.617Z,5.71
2018-11-13T23:28:50.924Z,5.57
2018-11-13T23:31:20.932Z,5.46
2018-11-13T23:33:50.768Z,5.43
2018-11-13T23:36:20.574Z,5.36
2018-11-13T23:38:50.513Z,5.22
2018-11-13T23:41:20.893Z,5.28
2018-11-13T23:43:50.578Z,5.15
2018-11-13T23:46:20.530Z,5.16
2018-11-13T23:48:50.301Z,5.12
2018-11-13T23:51:20.043Z,5.08
2018-11-13T23:53:49.948Z,5.23
2018-11-13T23:56:19.757Z,5.14
2018-11-13T23:58:49.386Z,5.08
